KDXR/DXR METAR and TAF weather

Enter ICAO airport designator
Station Type Date Time Source
KDXR METAR 2020/04/06 17:53 UTC NOAA

KDXR 061753Z 33007G16KT 10SM CLR 14/M04 A3000 RMK AO2 SLP158 T01441039 10150 20078 58020


Station Type Date Time Source
KDXR Decoded METAR 2020/04/06 17:53 UTC NOAA

DANBURY MUNICIPAL AIRPORT, CT, United States (KDXR) 41-22N 073-29W 139M
Apr 06, 2020 - 01:53 PM EDT / 2020.04.06 1753 UTC
Wind: from the NNW (330 degrees) at 8 MPH (7 KT) gusting to 18 MPH (16 KT):0
Visibility: 10 mile(s):0
Sky conditions: clear
Temperature: 57.9 F (14.4 C)
Dew Point: 25.0 F (-3.9 C)
Relative Humidity: 27%
Pressure (altimeter): 30 in. Hg (1015 hPa)
Pressure tendency: 0.06 inches (2.0 hPa) lower than three hours ago
ob: KDXR 061753Z 33007G16KT 10SM CLR 14/M04 A3000 RMK AO2 SLP158 T01441039 10150 20078 58020
cycle: 18

Station Type Date Time Source
KDXR TAF UTC NOAA

Error!

Example: see airport list